Redencao, Brazil
Current Conditions -  °F | °C
As of 4:00 PM on Tuesday 21 Oct 2014 (Local Time) from SBPJ Reporting Station
Thunderstorm Thunderstorm  
Wind Chill: 82°   Ceiling: Unl
Heat Index: 85°   Visibility: 6mi
Dew Point: 68°   Wind: 3mph
Humidity: 62%   Direction: 70°ENE
Pressure: 29.77"   Gusts: NA
Location:  8.03°S, 50.03°W
Report Text: SBPJ 211900Z 07003KT 9999 TS SCT030 FEW035CB 28/20 Q1008
Loading
Personal Weather Stations






























Interactive Weather Map
Tropical Storm Tracking
New forecast layout! Learn more

10-Day Weather Forecast

Advertisements
Track Severe Weather on mobile